Wirtz, VA (24184)

2:42 PM EDT on May 28, 2017 (GMT -0400)
SML @ Burnt Chimney | | Change Station

Elev 810 ft 37.06 °N, 79.74 °W | Updated 2 minutes ago

Overcast
Overcast
79.0 °F
Feels Like 82 °F
N
0.0
Wind Variable Wind from SW
Gusts 3.0 mph

Today
High -- | Low -- °F
--% Chance of Precip.
Yesterday
High -- | Low -- °F
Precip. -- in
Pressure 29.81 in
Visibility 10.0 miles
Clouds Scattered Clouds 4200 ft
Mostly Cloudy 9000 ft
Heat Index 82 °F
Dew Point 70 °F
Humidity 73%
Rainfall 0.00 in
Snow Depth Not available.
6:02 AM 8:30 PM
Waxing Crescent, 13% visible
METAR KROA 281754Z 14009KT 10SM SCT042 BKN090 26/19 A2984 RMK AO2 SLP092 T02610194 10272 20194 56018
Pressure 29.81 in
Visibility 10.0 miles
Clouds Scattered Clouds 4200 ft
Mostly Cloudy 9000 ft
Heat Index 82 °F
Dew Point 70 °F
Humidity 73%
Rainfall 0.00 in
Snow Depth Not available.
6:02 AM 8:30 PM
Waxing Crescent, 13% visible
METAR KROA 281754Z 14009KT 10SM SCT042 BKN090 26/19 A2984 RMK AO2 SLP092 T02610194 10272 20194 56018

Get Severe Weather Alerts

Thanks for signing up!

Be on the lookout for a verification email in your inbox.

You'll start receiving the daily forecast at 6 AM.

×

10-Day Weather Forecast

Almanac

Astronomy

May. 28, 2017 Rise Set
Actual Time
Civil Twilight
Nautical Twilight
Astronomical Twilight
Moon
Length of Visible Light
Length of Day
Tomorrow will be .
, % of the Moon is Illuminated

Today's Extremes

State Highs State Lows

Community

WunderPhotos

Category 6

Welcome to Category 6. This is the collective home for Weather Underground's featured writeups by Dr. Jeff Masters (right), Bob Henson (left), Chris Burt, and other regular contributors.

Nearby

Air Quality

  Air Quality AQ Index Pollutant
Not available.

Snow Depth

Station Depth Elevation

Earthquake Activity

City Distance Mag. Time & Date
Minimum magnitude displayed is 2.5.

Coastal Water Temperatures

Place Temperature

Stations

Nearby Weather Stations

Station Location Temp. Windchill Dew Point Humidity Wind Precip. Elev Updated Type
                   

Watches & Warnings

There are currently no watches in effect.